createdAt,value
2019-02-26T00:00:54.028Z,72.67
2019-02-26T00:01:53.019Z,72.53
2019-02-26T00:02:53.003Z,71.91
2019-02-26T00:03:52.256Z,71.70
2019-02-26T00:04:53.980Z,71.47
2019-02-26T00:05:54.024Z,71.08
2019-02-26T00:06:54.045Z,70.64
2019-02-26T00:07:53.311Z,70.64
2019-02-26T00:08:54.149Z,70.74
2019-02-26T00:09:55.101Z,70.43
2019-02-26T00:10:54.719Z,70.64
2019-02-26T00:11:52.167Z,71.26
2019-02-26T00:12:52.158Z,71.57
2019-02-26T00:13:52.817Z,71.05
2019-02-26T00:14:52.915Z,71.47
2019-02-26T00:15:52.155Z,71.57
2019-02-26T00:16:52.111Z,71.67
2019-02-26T00:17:53.032Z,71.57
2019-02-26T00:18:52.088Z,71.67
2019-02-26T00:19:52.078Z,71.67
2019-02-26T00:20:53.981Z,72.08
2019-02-26T00:21:54.311Z,71.98
2019-02-26T00:22:53.541Z,72.19
2019-02-26T00:23:53.133Z,72.08
2019-02-26T00:24:52.021Z,71.78
2019-02-26T00:25:52.035Z,71.36
2019-02-26T00:26:51.998Z,71.47
2019-02-26T00:27:53.690Z,72.19
2019-02-26T00:28:51.976Z,71.98
2019-02-26T00:29:53.129Z,72.19
2019-02-26T00:30:51.956Z,72.16
2019-02-26T00:31:52.914Z,72.29
2019-02-26T00:32:53.252Z,72.26
2019-02-26T00:33:51.924Z,72.50
2019-02-26T00:34:53.217Z,72.39
2019-02-26T00:35:51.901Z,71.78
2019-02-26T00:36:51.911Z,71.84
2019-02-26T00:37:53.478Z,71.98
2019-02-26T00:38:51.868Z,72.39
2019-02-26T00:39:53.608Z,72.19
2019-02-26T00:40:51.841Z,72.19
2019-02-26T00:41:53.642Z,72.29
2019-02-26T00:42:54.347Z,72.29
2019-02-26T00:43:53.490Z,72.29
2019-02-26T00:44:55.323Z,72.19
2019-02-26T00:45:53.348Z,72.60
2019-02-26T00:46:53.586Z,72.50
2019-02-26T00:47:51.762Z,72.67
2019-02-26T00:48:51.751Z,72.19
2019-02-26T00:49:53.431Z,72.19
2019-02-26T00:50:52.341Z,72.50
2019-02-26T00:51:52.766Z,72.29
2019-02-26T00:52:52.371Z,72.91
2019-02-26T00:53:53.321Z,72.39
2019-02-26T00:54:53.605Z,72.19
2019-02-26T00:55:54.202Z,72.39
2019-02-26T00:56:51.688Z,72.19
2019-02-26T00:57:51.650Z,72.22
2019-02-26T00:58:51.639Z,72.39
2019-02-26T00:59:51.628Z,72.19
2019-02-26T01:00:51.618Z,72.08
2019-02-26T01:01:52.627Z,72.29
2019-02-26T01:02:51.594Z,72.19
2019-02-26T01:03:51.951Z,72.19
2019-02-26T01:04:51.573Z,72.29
2019-02-26T01:05:51.561Z,72.19
2019-02-26T01:06:51.575Z,72.12
2019-02-26T01:07:52.639Z,72.39
2019-02-26T01:08:51.529Z,71.78
2019-02-26T01:09:52.495Z,71.47
2019-02-26T01:10:51.505Z,71.57
2019-02-26T01:11:52.036Z,71.47
2019-02-26T01:12:51.482Z,71.36
2019-02-26T01:13:52.796Z,71.53
2019-02-26T01:14:51.461Z,71.53
2019-02-26T01:15:51.447Z,71.33
2019-02-26T01:16:51.464Z,71.12
2019-02-26T01:17:51.427Z,71.12
2019-02-26T01:18:53.096Z,71.22
2019-02-26T01:19:51.406Z,71.02
2019-02-26T01:20:52.657Z,71.22
2019-02-26T01:21:51.407Z,71.33
2019-02-26T01:22:51.372Z,71.33
2019-02-26T01:23:51.360Z,71.02
2019-02-26T01:24:52.000Z,71.02
2019-02-26T01:25:54.195Z,70.71
2019-02-26T01:26:51.331Z,70.81
2019-02-26T01:27:53.143Z,71.02
2019-02-26T01:28:53.577Z,71.02
2019-02-26T01:29:53.429Z,70.29
2019-02-26T01:30:53.666Z,70.29
2019-02-26T01:31:51.274Z,70.16
2019-02-26T01:32:51.286Z,70.37
2019-02-26T01:33:52.877Z,70.47
2019-02-26T01:34:51.240Z,71.09
2019-02-26T01:35:52.835Z,70.26
2019-02-26T01:36:51.219Z,70.47
2019-02-26T01:37:51.460Z,70.16
2019-02-26T01:38:52.773Z,70.26
2019-02-26T01:39:52.220Z,71.33
2019-02-26T01:40:53.624Z,71.22
2019-02-26T01:41:53.400Z,71.43
2019-02-26T01:42:52.854Z,71.12
2019-02-26T01:43:51.145Z,71.12
2019-02-26T01:44:51.138Z,70.92
2019-02-26T01:45:53.115Z,70.81
2019-02-26T01:46:53.237Z,70.81
2019-02-26T01:47:52.798Z,70.71
2019-02-26T01:48:52.923Z,70.81
2019-02-26T01:49:51.183Z,71.53
2019-02-26T01:50:52.152Z,71.02
2019-02-26T01:51:51.779Z,70.81
2019-02-26T01:52:51.878Z,70.50
2019-02-26T01:53:51.888Z,70.50
2019-02-26T01:54:51.387Z,70.40
2019-02-26T01:55:51.007Z,70.29
2019-02-26T01:56:53.399Z,69.98
2019-02-26T01:57:51.010Z,69.92
2019-02-26T01:58:56.683Z,70.95
2019-02-26T01:59:51.964Z,71.36
2019-02-26T02:00:50.952Z,71.39
2019-02-26T02:01:51.858Z,71.29
2019-02-26T02:02:50.955Z,71.50
2019-02-26T02:03:53.116Z,70.98
2019-02-26T02:04:50.911Z,71.12
2019-02-26T02:05:52.961Z,71.01
2019-02-26T02:06:50.887Z,71.53
2019-02-26T02:07:51.941Z,71.63
2019-02-26T02:08:52.897Z,72.08
2019-02-26T02:09:53.064Z,71.77
2019-02-26T02:10:53.574Z,72.19
2019-02-26T02:11:51.831Z,72.50
2019-02-26T02:12:50.845Z,72.39
2019-02-26T02:13:50.810Z,72.39
2019-02-26T02:14:50.798Z,72.46
2019-02-26T02:15:50.787Z,71.94
2019-02-26T02:16:50.777Z,71.94
2019-02-26T02:17:50.791Z,71.70
2019-02-26T02:18:52.925Z,71.50
2019-02-26T02:19:50.744Z,71.50
2019-02-26T02:20:50.732Z,71.15
2019-02-26T02:21:51.502Z,70.98
2019-02-26T02:22:50.711Z,70.95
2019-02-26T02:23:51.323Z,71.05
2019-02-26T02:24:51.615Z,71.02
2019-02-26T02:25:50.675Z,70.43
2019-02-26T02:26:52.687Z,70.12
2019-02-26T02:27:54.180Z,70.50
2019-02-26T02:28:50.665Z,70.40
2019-02-26T02:29:51.366Z,70.09
2019-02-26T02:30:50.618Z,69.88
2019-02-26T02:31:52.329Z,70.09
2019-02-26T02:32:54.218Z,70.40
2019-02-26T02:33:51.608Z,70.19
2019-02-26T02:34:50.572Z,70.09
2019-02-26T02:35:50.562Z,69.88
2019-02-26T02:36:50.551Z,69.67
2019-02-26T02:37:53.329Z,69.37
2019-02-26T02:38:50.554Z,69.78
2019-02-26T02:39:50.515Z,69.26
2019-02-26T02:40:52.782Z,69.88
2019-02-26T02:41:51.694Z,69.57
2019-02-26T02:42:50.485Z,69.78
2019-02-26T02:43:50.499Z,70.19
2019-02-26T02:44:52.589Z,69.06
2019-02-26T02:45:52.932Z,69.57
2019-02-26T02:46:50.441Z,69.47
2019-02-26T02:47:54.758Z,69.78
2019-02-26T02:48:51.441Z,69.88
2019-02-26T02:49:50.405Z,69.78
2019-02-26T02:50:50.396Z,69.78
2019-02-26T02:51:50.383Z,70.19
2019-02-26T02:52:51.423Z,69.98
2019-02-26T02:53:51.101Z,69.88
2019-02-26T02:54:51.859Z,70.29
2019-02-26T02:55:51.585Z,70.19
2019-02-26T02:56:50.327Z,70.09
2019-02-26T02:57:53.110Z,70.29
2019-02-26T02:58:51.532Z,70.61
2019-02-26T02:59:50.299Z,71.12
2019-02-26T03:00:52.214Z,71.12
2019-02-26T03:01:52.704Z,71.64
2019-02-26T03:02:53.104Z,71.53
2019-02-26T03:03:50.589Z,71.67
2019-02-26T03:04:50.242Z,71.26
2019-02-26T03:05:50.230Z,71.67
2019-02-26T03:06:52.826Z,70.81
2019-02-26T03:07:51.523Z,70.92
2019-02-26T03:08:51.074Z,71.33
2019-02-26T03:09:50.192Z,71.22
2019-02-26T03:10:50.174Z,70.50
2019-02-26T03:11:52.537Z,70.61
2019-02-26T03:12:53.785Z,70.71
2019-02-26T03:13:51.914Z,70.50
2019-02-26T03:14:50.168Z,69.88
2019-02-26T03:15:53.243Z,70.29
2019-02-26T03:16:51.424Z,69.88
2019-02-26T03:17:50.098Z,69.98
2019-02-26T03:18:50.090Z,70.40
2019-02-26T03:19:50.100Z,70.40
2019-02-26T03:20:51.417Z,70.09
2019-02-26T03:21:52.420Z,69.88
2019-02-26T03:22:50.049Z,70.40
2019-02-26T03:23:50.042Z,70.40
2019-02-26T03:24:51.364Z,70.19
2019-02-26T03:25:52.249Z,70.19
2019-02-26T03:26:49.996Z,70.53
2019-02-26T03:27:49.984Z,70.71
2019-02-26T03:28:51.379Z,70.74
2019-02-26T03:29:52.156Z,70.95
2019-02-26T03:30:49.951Z,71.67
2019-02-26T03:31:54.734Z,71.78
2019-02-26T03:32:57.677Z,72.02
2019-02-26T03:33:50.922Z,72.22
2019-02-26T03:34:49.938Z,72.64
2019-02-26T03:35:49.908Z,72.64
2019-02-26T03:36:49.884Z,73.08
2019-02-26T03:37:54.084Z,73.91
2019-02-26T03:38:51.154Z,73.60
2019-02-26T03:39:49.877Z,73.39
2019-02-26T03:40:51.878Z,73.60
2019-02-26T03:41:51.087Z,73.91
2019-02-26T03:42:49.821Z,74.22
2019-02-26T03:43:49.819Z,73.81
2019-02-26T03:44:49.822Z,73.71
2019-02-26T03:45:49.785Z,73.81
2019-02-26T03:46:49.776Z,73.25
2019-02-26T03:47:49.763Z,73.19
2019-02-26T03:48:49.755Z,72.94
2019-02-26T03:49:49.766Z,73.05
2019-02-26T03:50:49.738Z,73.05
2019-02-26T03:51:49.719Z,73.39
2019-02-26T03:52:49.708Z,72.53
2019-02-26T03:53:49.697Z,73.05
2019-02-26T03:54:50.741Z,73.67
2019-02-26T03:55:49.675Z,73.98
2019-02-26T03:56:49.667Z,73.39
2019-02-26T03:57:52.884Z,73.05
2019-02-26T03:58:52.159Z,72.94
2019-02-26T03:59:49.657Z,73.25
2019-02-26T04:00:49.618Z,72.43
2019-02-26T04:01:49.608Z,72.43
2019-02-26T04:02:51.543Z,72.12
2019-02-26T04:03:49.584Z,72.12
2019-02-26T04:04:54.024Z,72.60
2019-02-26T04:05:50.560Z,72.53
2019-02-26T04:06:49.550Z,71.98
2019-02-26T04:07:52.480Z,71.57
2019-02-26T04:08:52.997Z,71.57
2019-02-26T04:09:52.866Z,71.57
2019-02-26T04:10:50.084Z,72.08
2019-02-26T04:11:51.045Z,71.67
2019-02-26T04:12:52.293Z,71.15
2019-02-26T04:13:52.270Z,71.26
2019-02-26T04:14:49.465Z,71.47
2019-02-26T04:15:51.371Z,71.47
2019-02-26T04:16:49.438Z,71.67
2019-02-26T04:17:49.426Z,71.67
2019-02-26T04:18:51.962Z,71.88
2019-02-26T04:19:49.408Z,71.81
2019-02-26T04:20:49.421Z,71.81
2019-02-26T04:21:49.382Z,71.81
2019-02-26T04:22:52.403Z,71.88
2019-02-26T04:23:49.360Z,71.91
2019-02-26T04:24:50.033Z,71.60
2019-02-26T04:25:51.494Z,72.33
2019-02-26T04:26:49.328Z,72.53
2019-02-26T04:27:49.313Z,72.64
2019-02-26T04:28:49.313Z,72.25
2019-02-26T04:29:49.457Z,72.12
2019-02-26T04:30:51.723Z,72.36
2019-02-26T04:31:50.266Z,73.15
2019-02-26T04:32:49.259Z,72.25
2019-02-26T04:33:49.249Z,72.43
2019-02-26T04:34:51.273Z,72.15
2019-02-26T04:35:50.131Z,72.33
2019-02-26T04:36:49.214Z,72.94
2019-02-26T04:37:49.205Z,73.25
2019-02-26T04:38:50.730Z,73.15
2019-02-26T04:39:49.181Z,72.77
2019-02-26T04:40:49.205Z,72.46
2019-02-26T04:41:49.182Z,72.98
2019-02-26T04:42:49.147Z,72.98
2019-02-26T04:43:51.949Z,73.29
2019-02-26T04:44:52.350Z,73.29
2019-02-26T04:45:49.121Z,72.56
2019-02-26T04:46:51.394Z,72.46
2019-02-26T04:47:51.882Z,72.67
2019-02-26T04:48:50.077Z,72.98
2019-02-26T04:49:49.067Z,72.77
2019-02-26T04:50:49.056Z,72.77
2019-02-26T04:51:50.542Z,72.46
2019-02-26T04:52:49.033Z,72.67
2019-02-26T04:53:51.079Z,72.39
2019-02-26T04:54:49.013Z,72.19
2019-02-26T04:55:49.001Z,72.32
2019-02-26T04:56:51.010Z,72.11
2019-02-26T04:57:51.102Z,72.32
2019-02-26T04:58:48.973Z,72.25
2019-02-26T04:59:48.958Z,72.36
2019-02-26T05:00:48.944Z,73.32
2019-02-26T05:01:52.100Z,73.84
2019-02-26T05:02:48.923Z,73.94
2019-02-26T05:03:48.912Z,73.88
2019-02-26T05:04:48.902Z,74.29
2019-02-26T05:05:51.249Z,75.02
2019-02-26T05:06:48.881Z,75.23
2019-02-26T05:07:50.039Z,75.43
2019-02-26T05:08:48.855Z,75.43
2019-02-26T05:09:51.122Z,75.54
2019-02-26T05:10:49.880Z,76.16
2019-02-26T05:11:48.823Z,76.06
2019-02-26T05:12:48.834Z,76.29
2019-02-26T05:13:48.813Z,75.67
2019-02-26T05:14:48.787Z,75.88
2019-02-26T05:15:48.777Z,76.12
2019-02-26T05:16:48.766Z,76.02
2019-02-26T05:17:48.781Z,76.12
2019-02-26T05:18:49.575Z,76.02
2019-02-26T05:19:51.503Z,75.60
2019-02-26T05:20:48.719Z,76.06
2019-02-26T05:21:48.708Z,76.54
2019-02-26T05:22:48.724Z,76.47
2019-02-26T05:23:49.568Z,76.26
2019-02-26T05:24:50.293Z,76.26
2019-02-26T05:25:48.668Z,76.19
2019-02-26T05:26:48.654Z,76.51
2019-02-26T05:27:50.851Z,76.89
2019-02-26T05:28:49.748Z,78.03
2019-02-26T05:29:49.777Z,78.86
2019-02-26T05:30:49.636Z,79.38
2019-02-26T05:31:48.599Z,78.96
2019-02-26T05:32:51.085Z,78.96
2019-02-26T05:33:50.111Z,79.34
2019-02-26T05:34:50.852Z,77.99
2019-02-26T05:35:49.489Z,78.27
2019-02-26T05:36:48.541Z,78.20
2019-02-26T05:37:48.554Z,78.16
2019-02-26T05:38:49.257Z,77.75
2019-02-26T05:39:51.043Z,78.06
2019-02-26T05:40:50.863Z,78.44
2019-02-26T05:41:52.345Z,78.34
2019-02-26T05:42:48.499Z,78.13
2019-02-26T05:43:52.117Z,77.82
2019-02-26T05:44:53.754Z,78.23
2019-02-26T05:45:50.945Z,77.51
2019-02-26T05:46:50.794Z,77.92
2019-02-26T05:47:50.839Z,77.09
2019-02-26T05:48:49.103Z,77.16
2019-02-26T05:49:48.400Z,77.09
2019-02-26T05:50:48.383Z,77.72
2019-02-26T05:51:48.376Z,77.72
2019-02-26T05:52:50.397Z,78.03
2019-02-26T05:53:49.374Z,78.09
2019-02-26T05:54:48.346Z,78.44
2019-02-26T05:55:50.677Z,78.55
2019-02-26T05:56:49.809Z,78.86
2019-02-26T05:57:48.306Z,78.44
2019-02-26T05:58:48.319Z,78.86
2019-02-26T05:59:48.285Z,79.38
2019-02-26T06:00:48.273Z,79.38
2019-02-26T06:01:50.246Z,79.27
2019-02-26T06:02:50.961Z,78.65
2019-02-26T06:03:49.839Z,78.65
2019-02-26T06:04:48.228Z,78.86
2019-02-26T06:05:49.014Z,78.55
2019-02-26T06:06:50.308Z,78.65
2019-02-26T06:07:48.198Z,78.55
2019-02-26T06:08:48.209Z,78.65
2019-02-26T06:09:50.875Z,78.23
2019-02-26T06:10:48.161Z,78.13
2019-02-26T06:11:50.089Z,78.03
2019-02-26T06:12:48.141Z,77.72
2019-02-26T06:13:48.151Z,77.92
2019-02-26T06:14:48.124Z,78.13
2019-02-26T06:15:48.105Z,78.03
2019-02-26T06:16:48.733Z,77.72
2019-02-26T06:17:49.056Z,77.72
2019-02-26T06:18:49.092Z,77.61
2019-02-26T06:19:48.059Z,77.61
2019-02-26T06:20:48.663Z,77.51
2019-02-26T06:21:49.733Z,77.82
2019-02-26T06:22:48.023Z,78.23
2019-02-26T06:23:48.054Z,77.51
2019-02-26T06:24:48.001Z,76.78
2019-02-26T06:25:47.999Z,76.06
2019-02-26T06:26:47.979Z,76.47
2019-02-26T06:27:47.969Z,76.37
2019-02-26T06:28:49.898Z,76.92
2019-02-26T06:29:47.947Z,77.54
2019-02-26T06:30:47.936Z,77.85
2019-02-26T06:31:49.377Z,76.81
2019-02-26T06:32:47.914Z,76.71
2019-02-26T06:33:47.924Z,76.81
2019-02-26T06:34:47.889Z,76.85
2019-02-26T06:35:47.881Z,76.61
2019-02-26T06:36:48.868Z,76.64
2019-02-26T06:37:47.857Z,77.68
2019-02-26T06:38:49.750Z,77.89
2019-02-26T06:39:50.532Z,77.68
2019-02-26T06:40:49.142Z,77.68
2019-02-26T06:41:49.148Z,77.72
2019-02-26T06:42:47.799Z,77.92
2019-02-26T06:43:50.354Z,78.03
2019-02-26T06:44:49.455Z,78.44
2019-02-26T06:45:47.859Z,78.96
2019-02-26T06:46:47.758Z,78.61
2019-02-26T06:47:48.410Z,78.30
2019-02-26T06:48:47.735Z,78.09
2019-02-26T06:49:48.442Z,77.78
2019-02-26T06:50:47.712Z,77.85
2019-02-26T06:51:49.718Z,77.95
2019-02-26T06:52:50.584Z,78.37
2019-02-26T06:53:49.816Z,78.06
2019-02-26T06:54:50.802Z,77.72
2019-02-26T06:55:48.653Z,77.92
2019-02-26T06:56:49.045Z,77.92
2019-02-26T06:57:50.805Z,77.92
2019-02-26T06:58:48.618Z,77.68
2019-02-26T06:59:47.634Z,77.78
2019-02-26T07:00:48.172Z,76.85
2019-02-26T07:01:47.587Z,76.64
2019-02-26T07:02:47.575Z,76.64
2019-02-26T07:03:47.569Z,76.54
2019-02-26T07:04:47.578Z,76.64
2019-02-26T07:05:47.542Z,76.33
2019-02-26T07:06:47.532Z,76.02
2019-02-26T07:07:47.529Z,75.88
2019-02-26T07:08:48.886Z,76.09
2019-02-26T07:09:47.520Z,76.19
2019-02-26T07:10:47.484Z,75.88
2019-02-26T07:11:47.473Z,75.98
2019-02-26T07:12:48.757Z,75.98
2019-02-26T07:13:47.452Z,75.78
2019-02-26T07:14:48.411Z,75.98
2019-02-26T07:15:47.439Z,75.63
2019-02-26T07:16:47.418Z,75.74
2019-02-26T07:17:47.424Z,75.84
2019-02-26T07:18:47.396Z,75.63
2019-02-26T07:19:47.410Z,75.02
2019-02-26T07:20:49.868Z,75.84
2019-02-26T07:21:50.445Z,74.91
2019-02-26T07:22:49.639Z,76.05
2019-02-26T07:23:47.341Z,75.63
2019-02-26T07:24:49.523Z,75.32
2019-02-26T07:25:47.342Z,75.53
2019-02-26T07:26:48.314Z,75.53
2019-02-26T07:27:47.294Z,75.02
2019-02-26T07:28:48.752Z,75.32
2019-02-26T07:29:47.971Z,74.91
2019-02-26T07:30:47.290Z,75.40
2019-02-26T07:31:49.058Z,74.98
2019-02-26T07:32:48.263Z,75.29
2019-02-26T07:33:47.229Z,75.12
2019-02-26T07:34:49.682Z,74.88
2019-02-26T07:35:47.230Z,74.15
2019-02-26T07:36:47.959Z,74.36
2019-02-26T07:37:47.191Z,74.98
2019-02-26T07:38:49.064Z,74.88
2019-02-26T07:39:49.115Z,74.46
2019-02-26T07:40:47.175Z,74.15
2019-02-26T07:41:49.221Z,74.36
2019-02-26T07:42:49.312Z,74.57
2019-02-26T07:43:49.377Z,74.67
2019-02-26T07:44:47.104Z,74.53
2019-02-26T07:45:47.118Z,74.46
2019-02-26T07:46:47.080Z,74.05
2019-02-26T07:47:49.090Z,73.60
2019-02-26T07:48:48.851Z,73.71
2019-02-26T07:49:47.049Z,74.02
2019-02-26T07:50:49.026Z,73.91
2019-02-26T07:51:47.025Z,73.91
2019-02-26T07:52:47.864Z,74.12
2019-02-26T07:53:50.639Z,74.12
2019-02-26T07:54:47.583Z,73.91
2019-02-26T07:55:47.005Z,73.67
2019-02-26T07:56:46.968Z,73.67
2019-02-26T07:57:48.945Z,74.29
2019-02-26T07:58:46.967Z,74.08
2019-02-26T07:59:47.581Z,73.67
2019-02-26T08:00:49.550Z,73.25
2019-02-26T08:01:47.739Z,73.25
2019-02-26T08:02:46.901Z,73.05
2019-02-26T08:03:48.677Z,73.15
2019-02-26T08:04:46.880Z,72.91
2019-02-26T08:05:46.903Z,73.33
2019-02-26T08:06:46.855Z,72.81
2019-02-26T08:07:48.625Z,73.02
2019-02-26T08:08:48.847Z,73.39
2019-02-26T08:09:46.830Z,73.08
2019-02-26T08:10:48.870Z,72.50
2019-02-26T08:11:49.059Z,72.50
2019-02-26T08:12:46.790Z,72.36
2019-02-26T08:13:46.782Z,71.98
2019-02-26T08:14:47.824Z,72.47
2019-02-26T08:15:46.762Z,72.05
2019-02-26T08:16:55.659Z,72.05
2019-02-26T08:17:50.231Z,71.84
2019-02-26T08:18:47.390Z,71.84
2019-02-26T08:19:49.185Z,71.95
2019-02-26T08:20:46.702Z,71.61
2019-02-26T08:21:47.896Z,71.12
2019-02-26T08:22:46.680Z,71.19
2019-02-26T08:23:48.337Z,71.30
2019-02-26T08:24:48.629Z,70.47
2019-02-26T08:25:46.646Z,70.78
2019-02-26T08:26:47.548Z,70.43
2019-02-26T08:27:46.623Z,70.23
2019-02-26T08:28:48.210Z,70.12
2019-02-26T08:29:46.603Z,69.61
2019-02-26T08:30:47.400Z,69.51
2019-02-26T08:31:47.470Z,69.89
2019-02-26T08:32:51.116Z,69.78
2019-02-26T08:33:50.914Z,69.58
2019-02-26T08:34:46.546Z,69.68
2019-02-26T08:35:46.535Z,69.68
2019-02-26T08:36:46.930Z,69.99
2019-02-26T08:37:46.513Z,69.85
2019-02-26T08:38:46.502Z,69.75
2019-02-26T08:39:46.491Z,69.75
2019-02-26T08:40:46.480Z,69.03
2019-02-26T08:41:46.495Z,69.48
2019-02-26T08:42:46.462Z,69.24
2019-02-26T08:43:49.084Z,69.24
2019-02-26T08:44:48.626Z,68.82
2019-02-26T08:45:46.425Z,68.41
2019-02-26T08:46:47.258Z,68.62
2019-02-26T08:47:46.404Z,68.38
2019-02-26T08:48:48.347Z,68.69
2019-02-26T08:49:47.502Z,68.38
2019-02-26T08:50:46.410Z,68.27
2019-02-26T08:51:46.384Z,68.07
2019-02-26T08:52:49.390Z,68.48
2019-02-26T08:53:47.622Z,67.97
2019-02-26T08:54:46.325Z,67.21
2019-02-26T08:55:46.314Z,66.70
2019-02-26T08:56:46.326Z,67.11
2019-02-26T08:57:46.291Z,67.52
2019-02-26T08:58:46.281Z,67.32
2019-02-26T08:59:47.310Z,67.00
2019-02-26T09:00:46.264Z,67.11
2019-02-26T09:01:46.247Z,66.91
2019-02-26T09:02:48.488Z,66.80
2019-02-26T09:03:48.050Z,66.56
2019-02-26T09:04:47.852Z,66.97
2019-02-26T09:05:46.201Z,66.77
2019-02-26T09:06:46.191Z,66.97
2019-02-26T09:07:47.643Z,66.15
2019-02-26T09:08:46.166Z,66.15
2019-02-26T09:09:48.109Z,65.33
2019-02-26T09:10:46.974Z,64.89
2019-02-26T09:11:46.131Z,64.86
2019-02-26T09:12:48.700Z,64.44
2019-02-26T09:13:46.106Z,64.96
2019-02-26T09:14:48.129Z,64.65
2019-02-26T09:15:46.084Z,64.65
2019-02-26T09:16:49.759Z,64.72
2019-02-26T09:17:52.107Z,64.65
2019-02-26T09:18:46.054Z,64.62
2019-02-26T09:19:46.037Z,63.52
2019-02-26T09:20:46.025Z,63.49
2019-02-26T09:21:47.809Z,63.46
2019-02-26T09:22:48.269Z,63.46
2019-02-26T09:23:49.494Z,62.33
2019-02-26T09:24:46.874Z,62.12
2019-02-26T09:25:46.464Z,62.09
2019-02-26T09:26:47.388Z,61.99
2019-02-26T09:27:45.970Z,62.30
2019-02-26T09:28:47.675Z,61.27
2019-02-26T09:29:49.594Z,61.04
2019-02-26T09:30:46.911Z,60.83
2019-02-26T09:31:45.902Z,60.52
2019-02-26T09:32:45.914Z,59.77
2019-02-26T09:33:45.879Z,59.98
2019-02-26T09:34:45.866Z,59.67
2019-02-26T09:35:47.474Z,59.44
2019-02-26T09:36:50.704Z,59.75
2019-02-26T09:37:47.876Z,60.05
2019-02-26T09:38:46.818Z,59.23
2019-02-26T09:39:45.811Z,59.11
2019-02-26T09:40:47.623Z,59.82
2019-02-26T09:41:45.789Z,59.62
2019-02-26T09:42:46.847Z,59.92
2019-02-26T09:43:46.426Z,59.85
2019-02-26T09:44:45.753Z,59.31
2019-02-26T09:45:47.784Z,58.39
2019-02-26T09:46:45.731Z,58.15
2019-02-26T09:47:47.443Z,57.64
2019-02-26T09:48:46.148Z,58.26
2019-02-26T09:49:47.822Z,58.46
2019-02-26T09:50:46.421Z,58.05
2019-02-26T09:51:45.675Z,57.54
2019-02-26T09:52:47.638Z,57.00
2019-02-26T09:53:47.109Z,57.10
2019-02-26T09:54:47.746Z,58.03
2019-02-26T09:55:45.630Z,57.61
2019-02-26T09:56:45.618Z,57.10
2019-02-26T09:57:45.648Z,56.38
2019-02-26T09:58:46.544Z,57.79
2019-02-26T09:59:45.584Z,57.69
2019-02-26T10:00:47.884Z,57.69
2019-02-26T10:01:45.564Z,57.79
2019-02-26T10:02:47.098Z,57.48
2019-02-26T10:03:45.541Z,57.89
2019-02-26T10:04:47.301Z,57.79
2019-02-26T10:05:47.646Z,57.89
2019-02-26T10:06:47.431Z,58.17
2019-02-26T10:07:45.500Z,58.17
2019-02-26T10:08:46.219Z,57.76
2019-02-26T10:09:48.314Z,56.95
2019-02-26T10:10:45.460Z,56.02
2019-02-26T10:11:47.479Z,56.71
2019-02-26T10:12:45.438Z,56.61
2019-02-26T10:13:47.206Z,57.33
2019-02-26T10:14:45.415Z,56.41
2019-02-26T10:15:45.405Z,56.20
2019-02-26T10:16:47.092Z,56.30
2019-02-26T10:17:45.384Z,57.23
2019-02-26T10:18:47.241Z,57.30
2019-02-26T10:19:45.359Z,56.59
2019-02-26T10:20:47.617Z,56.38
2019-02-26T10:21:45.337Z,55.77
2019-02-26T10:22:45.324Z,55.84
2019-02-26T10:23:49.294Z,56.56
2019-02-26T10:24:46.302Z,56.87
2019-02-26T10:25:45.296Z,56.66
2019-02-26T10:26:45.282Z,56.46
2019-02-26T10:27:46.220Z,56.15
2019-02-26T10:28:46.826Z,55.82
2019-02-26T10:29:47.616Z,55.00
2019-02-26T10:30:45.235Z,55.10
2019-02-26T10:31:45.223Z,54.59
2019-02-26T10:32:46.827Z,54.80
2019-02-26T10:33:46.361Z,54.46
2019-02-26T10:34:45.192Z,55.58
2019-02-26T10:35:47.460Z,55.28
2019-02-26T10:36:47.223Z,54.05
2019-02-26T10:37:45.157Z,54.16
2019-02-26T10:38:45.168Z,54.03
2019-02-26T10:39:47.317Z,53.72
2019-02-26T10:40:53.397Z,53.52
2019-02-26T10:41:46.720Z,53.72
2019-02-26T10:42:46.229Z,52.27
2019-02-26T10:43:45.112Z,52.06
2019-02-26T10:44:45.077Z,52.37
2019-02-26T10:45:47.437Z,51.22
2019-02-26T10:46:45.056Z,51.22
2019-02-26T10:47:45.042Z,52.62
2019-02-26T10:48:45.667Z,52.25
2019-02-26T10:49:46.513Z,51.71
2019-02-26T10:50:46.974Z,49.57
2019-02-26T10:51:44.998Z,49.87
2019-02-26T10:52:44.987Z,49.44
2019-02-26T10:53:44.981Z,50.97
2019-02-26T10:54:46.618Z,50.26
2019-02-26T10:55:44.954Z,50.03
2019-02-26T10:56:45.018Z,50.84
2019-02-26T10:57:47.730Z,49.73
2019-02-26T10:58:44.917Z,49.62
2019-02-26T10:59:45.158Z,49.50
2019-02-26T11:00:44.939Z,49.70
2019-02-26T11:01:46.634Z,49.40
2019-02-26T11:02:46.144Z,49.50
2019-02-26T11:03:46.787Z,48.68
2019-02-26T11:04:46.818Z,48.58
2019-02-26T11:05:48.018Z,48.96
2019-02-26T11:06:46.871Z,49.98
2019-02-26T11:07:44.818Z,49.17
2019-02-26T11:08:44.816Z,47.44
2019-02-26T11:09:47.289Z,48.54
2019-02-26T11:10:46.958Z,48.23
2019-02-26T11:11:44.770Z,48.21
2019-02-26T11:12:45.804Z,48.51
2019-02-26T11:13:47.011Z,48.92
2019-02-26T11:14:45.768Z,49.12
2019-02-26T11:15:44.733Z,48.61
2019-02-26T11:16:44.713Z,48.82
2019-02-26T11:17:45.755Z,48.39
2019-02-26T11:18:45.724Z,49.00
2019-02-26T11:19:44.709Z,48.39
2019-02-26T11:20:45.799Z,49.30
2019-02-26T11:21:44.657Z,49.61
2019-02-26T11:22:45.244Z,48.28
2019-02-26T11:23:46.416Z,48.67
2019-02-26T11:24:44.759Z,49.28
2019-02-26T11:25:44.615Z,49.08
2019-02-26T11:26:44.601Z,47.14
2019-02-26T11:27:45.981Z,47.75
2019-02-26T11:28:45.914Z,48.06
2019-02-26T11:29:44.612Z,47.35
2019-02-26T11:30:46.474Z,48.57
2019-02-26T11:31:45.497Z,47.14
2019-02-26T11:32:44.554Z,47.22
2019-02-26T11:33:44.523Z,47.63
2019-02-26T11:34:44.535Z,47.94
2019-02-26T11:35:47.099Z,47.51
2019-02-26T11:36:44.487Z,47.81
2019-02-26T11:37:45.392Z,47.71
2019-02-26T11:38:46.699Z,47.20
2019-02-26T11:39:44.456Z,47.91
2019-02-26T11:40:44.468Z,47.79
2019-02-26T11:41:44.434Z,46.57
2019-02-26T11:42:46.262Z,46.78
2019-02-26T11:43:44.409Z,46.98
2019-02-26T11:44:44.399Z,47.18
2019-02-26T11:45:44.567Z,47.79
2019-02-26T11:46:46.216Z,46.78
2019-02-26T11:47:44.363Z,46.88
2019-02-26T11:48:45.679Z,47.38
2019-02-26T11:49:46.715Z,47.08
2019-02-26T11:50:45.130Z,47.18
2019-02-26T11:51:44.319Z,47.08
2019-02-26T11:52:44.305Z,47.59
2019-02-26T11:53:45.787Z,47.18
2019-02-26T11:54:44.694Z,47.38
2019-02-26T11:55:44.296Z,46.78
2019-02-26T11:56:44.761Z,47.38
2019-02-26T11:57:45.691Z,46.95
2019-02-26T11:58:44.238Z,46.95
2019-02-26T11:59:44.228Z,46.65
2019-02-26T12:00:45.491Z,46.45
2019-02-26T12:01:44.204Z,47.28
2019-02-26T12:02:44.238Z,47.16
2019-02-26T12:03:44.186Z,47.36
2019-02-26T12:04:44.168Z,45.64
2019-02-26T12:05:44.187Z,47.36
2019-02-26T12:06:44.147Z,46.43
2019-02-26T12:07:46.064Z,46.53
2019-02-26T12:08:44.881Z,45.62
2019-02-26T12:09:44.113Z,46.94
2019-02-26T12:10:44.126Z,46.63
2019-02-26T12:11:44.089Z,46.91
2019-02-26T12:12:44.077Z,47.31
2019-02-26T12:13:44.708Z,45.59
2019-02-26T12:14:45.923Z,46.20
2019-02-26T12:15:44.073Z,46.61
2019-02-26T12:16:44.034Z,46.08
2019-02-26T12:17:45.660Z,45.17
2019-02-26T12:18:44.993Z,45.57
2019-02-26T12:19:43.999Z,44.36
2019-02-26T12:20:48.078Z,45.98
2019-02-26T12:21:43.977Z,45.47
2019-02-26T12:22:44.679Z,45.17
2019-02-26T12:23:46.092Z,45.47
2019-02-26T12:24:43.941Z,45.17
2019-02-26T12:25:43.957Z,44.64
2019-02-26T12:26:45.320Z,43.44
2019-02-26T12:27:45.651Z,44.74
2019-02-26T12:28:44.109Z,44.54
2019-02-26T12:29:45.509Z,44.03
2019-02-26T12:30:46.204Z,44.54
2019-02-26T12:31:43.865Z,43.32
2019-02-26T12:32:47.231Z,44.24
2019-02-26T12:33:43.840Z,43.32
2019-02-26T12:34:45.431Z,43.10
2019-02-26T12:35:43.927Z,44.32
2019-02-26T12:36:43.807Z,44.32
2019-02-26T12:37:43.798Z,44.82
2019-02-26T12:38:43.785Z,44.42
2019-02-26T12:39:46.973Z,43.20
2019-02-26T12:40:46.795Z,43.51
2019-02-26T12:41:45.328Z,43.51
2019-02-26T12:42:43.741Z,43.38
2019-02-26T12:43:46.357Z,42.58
2019-02-26T12:44:45.469Z,42.07
2019-02-26T12:45:43.730Z,42.88
2019-02-26T12:46:44.896Z,42.37
2019-02-26T12:47:45.550Z,42.86
2019-02-26T12:48:46.480Z,42.35
2019-02-26T12:49:45.094Z,42.17
2019-02-26T12:50:43.747Z,41.85
2019-02-26T12:51:43.661Z,42.55
2019-02-26T12:52:44.722Z,42.55